Time;durP1;ratioP1;P1;durP2;ratioP2;P2;SDS_P1;SDS_P2;PMS_P1;PMS_P2;Temp;Humidity;BMP_temperature;BMP_pressure;BME280_temperature;BME280_humidity;BME280_pressure;Samples;Min_cycle;Max_cycle;Signal;HPM_P1;HPM_P2
2022/05/15 00:01:15;;;;;;;28.13;20.83;;;8.50;99.90;;;;;;4967853;28;20051;-76
2022/05/15 00:03:43;;;;;;;25.40;22.08;;;8.50;99.90;;;;;;4967871;28;20166;-76
2022/05/15 00:06:10;;;;;;;31.17;19.40;;;8.40;99.90;;;;;;4985067;28;20517;-77
2022/05/15 00:08:38;;;;;;;34.05;19.70;;;8.50;99.90;;;;;;4969967;28;20089;-76
2022/05/15 00:11:08;;;;;;;26.42;19.38;;;8.60;99.90;;;;;;4984871;28;20074;-76
2022/05/15 00:13:36;;;;;;;22.33;17.65;;;8.70;99.90;;;;;;4978035;28;20054;-76
2022/05/15 00:16:03;;;;;;;31.63;20.23;;;8.60;99.90;;;;;;4983476;28;20166;-77
2022/05/15 00:18:30;;;;;;;24.63;17.60;;;8.50;99.90;;;;;;4968089;28;20387;-78
2022/05/15 00:20:57;;;;;;;21.75;19.50;;;8.60;99.90;;;;;;4983651;28;20046;-76
2022/05/15 00:23:25;;;;;;;24.63;20.65;;;8.50;99.90;;;;;;4967533;28;20158;-77
2022/05/15 00:25:52;;;;;;;29.42;20.13;;;8.40;99.90;;;;;;4967771;28;20038;-77
2022/05/15 00:28:19;;;;;;;22.75;18.58;;;8.40;99.90;;;;;;4967992;28;20601;-77
2022/05/15 00:30:46;;;;;;;29.23;18.70;;;8.40;99.90;;;;;;4966853;28;20460;-76
2022/05/15 00:33:14;;;;;;;28.85;19.30;;;8.30;99.90;;;;;;4968055;28;20343;-76
2022/05/15 00:35:41;;;;;;;33.63;20.23;;;8.30;99.90;;;;;;4967456;28;20050;-76
2022/05/15 00:38:10;;;;;;;25.27;18.63;;;8.30;99.90;;;;;;4968817;28;20420;-76
2022/05/15 00:40:40;;;;;;;29.02;19.88;;;8.30;99.90;;;;;;4985686;28;20054;-76
2022/05/15 00:43:12;;;;;;;32.58;19.30;;;8.20;99.90;;;;;;4976295;28;20131;-76
2022/05/15 00:45:39;;;;;;;27.45;18.98;;;8.20;99.90;;;;;;4986942;28;20046;-76
2022/05/15 00:48:07;;;;;;;29.42;18.30;;;8.20;99.90;;;;;;4967853;28;20489;-77
2022/05/15 00:50:36;;;;;;;26.77;18.75;;;8.30;99.90;;;;;;4980593;28;20101;-76
2022/05/15 00:53:09;;;;;;;36.88;19.35;;;8.30;99.90;;;;;;4949395;28;20465;-77
2022/05/15 00:55:42;;;;;;;32.15;19.70;;;8.20;99.90;;;;;;4980235;28;20163;-76
2022/05/15 00:58:14;;;;;;;28.38;19.98;;;8.20;99.90;;;;;;4968221;28;20062;-76
2022/05/15 01:00:42;;;;;;;31.33;18.90;;;8.20;99.90;;;;;;4967978;28;20054;-76
2022/05/15 01:03:15;;;;;;;27.75;19.63;;;8.30;99.90;;;;;;4984018;28;20086;-76
2022/05/15 01:05:49;;;;;;;38.78;19.67;;;8.40;99.90;;;;;;4968221;28;20400;-75
2022/05/15 01:08:22;;;;;;;28.45;17.17;;;8.40;99.90;;;;;;4968299;28;20050;-77
2022/05/15 01:10:53;;;;;;;30.27;18.83;;;8.50;99.90;;;;;;4967554;28;20054;-75
2022/05/15 01:13:30;;;;;;;29.58;18.45;;;8.70;99.90;;;;;;4977477;28;20154;-77
2022/05/15 01:15:58;;;;;;;26.30;16.95;;;8.60;99.90;;;;;;4967540;28;20050;-77
2022/05/15 01:18:29;;;;;;;31.67;18.48;;;8.50;99.90;;;;;;4973279;28;20153;-77
2022/05/15 01:20:58;;;;;;;34.25;20.27;;;8.40;99.90;;;;;;4970100;28;20120;-76
2022/05/15 01:23:26;;;;;;;27.80;18.55;;;8.50;99.90;;;;;;4967559;28;20077;-75
2022/05/15 01:25:56;;;;;;;43.85;18.90;;;8.60;99.90;;;;;;4951896;28;20046;-76
2022/05/15 01:28:26;;;;;;;37.60;19.02;;;8.60;99.90;;;;;;4967272;28;20058;-76
2022/05/15 01:30:57;;;;;;;35.10;18.85;;;8.70;99.90;;;;;;4966530;28;20061;-76
2022/05/15 01:33:24;;;;;;;34.03;19.67;;;8.70;99.90;;;;;;4968318;28;20058;-77
2022/05/15 01:35:51;;;;;;;35.83;19.48;;;8.60;99.90;;;;;;4984873;28;20045;-76
2022/05/15 01:38:18;;;;;;;34.92;19.23;;;8.70;99.90;;;;;;4999896;28;20512;-77
2022/05/15 01:40:48;;;;;;;26.65;18.70;;;8.50;99.90;;;;;;4967944;28;20570;-76
2022/05/15 01:43:16;;;;;;;32.88;18.98;;;8.50;99.90;;;;;;4979308;28;20048;-75
2022/05/15 01:45:44;;;;;;;32.00;19.33;;;8.40;99.90;;;;;;4968290;28;20722;-76
2022/05/15 01:48:12;;;;;;;34.17;19.38;;;8.40;99.90;;;;;;4968466;28;20050;-76
2022/05/15 01:50:41;;;;;;;32.95;18.02;;;8.50;99.90;;;;;;4967377;28;20073;-77
2022/05/15 01:53:10;;;;;;;36.30;20.70;;;8.50;99.90;;;;;;4967129;28;20467;-76
2022/05/15 01:55:39;;;;;;;33.65;19.48;;;8.50;99.90;;;;;;4966074;28;20050;-76
2022/05/15 01:58:09;;;;;;;31.92;18.48;;;8.40;99.90;;;;;;4967528;28;20458;-77
2022/05/15 02:00:37;;;;;;;29.50;18.90;;;8.50;99.90;;;;;;4950762;28;20053;-76
2022/05/15 02:03:04;;;;;;;36.97;19.27;;;8.40;99.90;;;;;;4967271;28;20042;-76
2022/05/15 02:05:31;;;;;;;34.75;18.48;;;8.40;99.90;;;;;;4967640;28;20050;-76
2022/05/15 02:07:58;;;;;;;27.90;18.60;;;8.40;99.90;;;;;;4980637;28;20395;-77
2022/05/15 02:10:25;;;;;;;30.48;19.25;;;8.20;99.90;;;;;;4972121;28;20598;-75
2022/05/15 02:12:52;;;;;;;34.95;18.90;;;8.20;99.90;;;;;;4974573;28;20589;-75
2022/05/15 02:15:19;;;;;;;34.13;19.63;;;8.20;99.90;;;;;;4973311;28;20073;-76
2022/05/15 02:17:46;;;;;;;28.88;19.00;;;8.10;99.90;;;;;;5024928;22;20049;-76
2022/05/15 02:20:13;;;;;;;25.85;19.67;;;8.00;99.90;;;;;;5005387;28;20245;-76
2022/05/15 02:22:41;;;;;;;30.67;19.70;;;8.00;99.90;;;;;;5004620;28;20049;-76
2022/05/15 02:25:12;;;;;;;28.92;19.92;;;7.90;99.90;;;;;;5004142;28;20038;-76
2022/05/15 02:27:42;;;;;;;24.48;18.92;;;7.90;99.90;;;;;;5005443;28;20435;-76
2022/05/15 02:30:11;;;;;;;35.35;19.08;;;8.00;99.90;;;;;;5003665;28;20045;-76
2022/05/15 02:32:39;;;;;;;26.27;19.25;;;7.90;99.90;;;;;;5003976;28;20045;-77
2022/05/15 02:35:07;;;;;;;26.42;19.00;;;7.80;99.90;;;;;;4987513;28;20046;-76
2022/05/15 02:37:34;;;;;;;34.45;18.80;;;7.80;99.90;;;;;;4988192;28;20053;-77
2022/05/15 02:40:01;;;;;;;23.08;19.23;;;7.70;99.90;;;;;;5004222;28;20057;-76
2022/05/15 02:42:28;;;;;;;30.02;18.88;;;7.70;99.90;;;;;;4985748;28;20076;-77
2022/05/15 02:44:55;;;;;;;32.13;19.42;;;7.60;99.90;;;;;;4986938;28;20042;-76
2022/05/15 02:47:22;;;;;;;26.00;19.98;;;7.70;99.90;;;;;;5003969;28;20502;-76
2022/05/15 02:52:34;;;;;;;33.33;20.00;;;7.50;99.90;;;;;;5006194;28;20413;-75
2022/05/15 02:55:02;;;;;;;22.60;18.05;;;7.60;99.90;;;;;;5016305;28;20053;-77
2022/05/15 02:57:29;;;;;;;29.42;18.67;;;7.50;99.90;;;;;;5016282;28;20050;-76
2022/05/15 02:59:56;;;;;;;38.92;20.67;;;7.40;99.90;;;;;;5017591;28;20057;-77
2022/05/15 03:02:23;;;;;;;39.22;17.77;;;7.50;99.90;;;;;;4982635;28;20053;-77
2022/05/15 03:04:51;;;;;;;30.80;17.60;;;7.50;99.90;;;;;;4995277;28;20053;-76
2022/05/15 03:07:19;;;;;;;31.38;17.95;;;7.40;99.90;;;;;;4995641;28;20050;-76
2022/05/15 03:09:47;;;;;;;27.80;18.65;;;7.40;99.90;;;;;;4979315;28;20455;-77
2022/05/15 03:12:14;;;;;;;28.55;17.00;;;7.40;99.90;;;;;;4981808;28;20050;-77
2022/05/15 03:14:41;;;;;;;29.52;17.77;;;7.40;99.90;;;;;;5000324;28;20042;-76
2022/05/15 03:17:08;;;;;;;30.25;18.13;;;7.30;99.90;;;;;;4994151;28;20046;-76
2022/05/15 03:19:34;;;;;;;33.55;18.50;;;7.30;99.90;;;;;;4993159;28;20333;-77
2022/05/15 03:22:01;;;;;;;37.40;18.42;;;7.40;99.90;;;;;;4984230;28;20436;-77
2022/05/15 03:24:28;;;;;;;32.25;18.33;;;7.50;99.90;;;;;;4982721;28;20057;-76
2022/05/15 03:26:55;;;;;;;32.45;17.88;;;7.50;99.90;;;;;;4982073;28;20045;-77
2022/05/15 03:29:23;;;;;;;34.22;17.85;;;7.40;99.90;;;;;;4996736;28;20042;-77
2022/05/15 03:31:49;;;;;;;30.20;16.23;;;7.40;99.90;;;;;;4980931;28;20138;-76
2022/05/15 03:34:17;;;;;;;38.08;17.50;;;7.40;99.90;;;;;;4997255;28;20169;-77
2022/05/15 03:36:45;;;;;;;23.42;15.13;;;7.40;99.90;;;;;;4998786;28;20049;-77
2022/05/15 03:39:14;;;;;;;30.35;16.55;;;7.30;99.90;;;;;;4979817;28;20084;-77
2022/05/15 03:41:42;;;;;;;26.40;16.52;;;7.30;99.90;;;;;;4997604;28;20698;-76
2022/05/15 03:44:09;;;;;;;29.17;15.55;;;7.20;99.90;;;;;;4998222;28;20053;-76
2022/05/15 03:46:37;;;;;;;27.90;16.98;;;7.20;99.90;;;;;;4999185;28;20164;-77
2022/05/15 03:49:04;;;;;;;30.35;16.85;;;7.10;99.90;;;;;;4989140;28;20136;-77
2022/05/15 03:51:32;;;;;;;39.72;18.23;;;7.10;99.90;;;;;;4996353;28;20030;-76
2022/05/15 03:53:59;;;;;;;24.60;16.45;;;7.20;99.90;;;;;;4996616;28;20624;-78
2022/05/15 03:59:12;;;;;;;31.73;16.60;;;7.30;99.90;;;;;;4997150;28;20054;-77
2022/05/15 04:01:39;;;;;;;31.80;16.40;;;7.30;99.90;;;;;;4997720;28;20643;-76
2022/05/15 04:04:08;;;;;;;29.02;16.42;;;7.30;99.90;;;;;;4996108;28;20328;-76
2022/05/15 04:06:35;;;;;;;24.98;15.05;;;7.30;99.90;;;;;;4996240;28;20046;-77
2022/05/15 04:09:03;;;;;;;29.63;16.08;;;7.30;99.90;;;;;;4997415;28;20679;-76
2022/05/15 04:11:31;;;;;;;37.55;16.95;;;7.20;99.90;;;;;;4980143;28;20092;-77
2022/05/15 04:13:58;;;;;;;24.05;15.50;;;7.30;99.90;;;;;;4996105;28;20129;-77
2022/05/15 04:16:25;;;;;;;24.48;16.35;;;7.20;99.90;;;;;;5015850;28;20045;-76
2022/05/15 04:18:52;;;;;;;24.13;17.00;;;7.20;99.90;;;;;;5000789;28;20080;-76
2022/05/15 04:21:19;;;;;;;31.35;18.10;;;7.30;99.90;;;;;;5016165;28;20348;-76
2022/05/15 04:23:46;;;;;;;24.90;16.90;;;7.20;99.90;;;;;;4993790;28;20064;-77
2022/05/15 04:26:13;;;;;;;31.90;17.85;;;7.30;99.90;;;;;;4997390;28;20049;-76
2022/05/15 04:28:41;;;;;;;28.70;16.90;;;7.40;99.90;;;;;;4979851;28;20060;-77
2022/05/15 04:31:08;;;;;;;31.13;17.38;;;7.40;99.90;;;;;;4996163;28;20054;-76
2022/05/15 04:33:35;;;;;;;36.33;17.45;;;7.50;99.90;;;;;;4993443;28;20153;-77
2022/05/15 04:36:03;;;;;;;26.17;17.77;;;7.50;99.90;;;;;;4980616;28;20153;-76
2022/05/15 04:38:30;;;;;;;23.25;17.98;;;7.60;99.90;;;;;;4998424;28;20112;-76
2022/05/15 04:40:57;;;;;;;29.20;19.13;;;7.70;99.90;;;;;;4998009;28;20046;-76
2022/05/15 04:43:23;;;;;;;31.98;18.35;;;7.80;99.90;;;;;;4999356;28;20058;-76
2022/05/15 04:45:50;;;;;;;33.20;18.15;;;8.00;99.90;;;;;;5017538;28;20072;-77
2022/05/15 04:48:17;;;;;;;31.05;17.13;;;7.90;99.90;;;;;;5013634;28;20046;-77
2022/05/15 04:50:44;;;;;;;28.85;17.52;;;8.10;99.90;;;;;;5001519;28;20058;-77
2022/05/15 04:53:10;;;;;;;30.75;16.98;;;8.30;99.90;;;;;;4977966;28;20058;-76
2022/05/15 04:55:37;;;;;;;32.42;17.17;;;8.30;99.90;;;;;;4989158;28;20054;-76
2022/05/15 04:58:04;;;;;;;28.05;16.52;;;8.40;99.90;;;;;;4997159;28;20046;-76
2022/05/15 05:00:31;;;;;;;26.58;16.80;;;8.60;99.90;;;;;;4978720;28;20057;-77
2022/05/15 05:02:58;;;;;;;27.98;15.90;;;8.90;99.90;;;;;;4993895;28;21026;-76
2022/05/15 05:05:25;;;;;;;23.70;17.73;;;9.10;99.90;;;;;;4996889;28;20050;-76
2022/05/15 05:07:52;;;;;;;35.25;17.48;;;9.40;99.90;;;;;;4998162;28;20119;-77
2022/05/15 05:10:19;;;;;;;24.77;20.70;;;9.80;99.90;;;;;;4997792;28;20057;-77
2022/05/15 05:12:46;;;;;;;28.15;23.80;;;10.30;99.90;;;;;;4996887;28;20054;-77
2022/05/15 05:15:13;;;;;;;27.67;24.80;;;10.70;99.90;;;;;;5007578;28;20045;-77
2022/05/15 05:17:41;;;;;;;27.40;24.58;;;11.10;99.90;;;;;;5017313;28;20050;-76
2022/05/15 05:20:10;;;;;;;25.75;23.45;;;11.30;99.90;;;;;;5016089;28;20049;-77
2022/05/15 05:22:38;;;;;;;27.88;23.83;;;11.50;99.90;;;;;;4995831;28;20068;-78
2022/05/15 05:25:06;;;;;;;28.52;25.50;;;11.60;99.90;;;;;;4996229;28;20054;-77
2022/05/15 05:27:34;;;;;;;31.10;27.00;;;11.90;99.90;;;;;;4997955;28;20046;-77
2022/05/15 05:30:00;;;;;;;32.63;26.90;;;12.20;99.90;;;;;;4994574;28;20152;-77
2022/05/15 05:32:27;;;;;;;30.13;25.42;;;12.50;99.90;;;;;;4996076;28;20053;-77
2022/05/15 05:34:54;;;;;;;29.98;26.30;;;12.70;99.90;;;;;;4980299;28;20182;-77
2022/05/15 05:37:21;;;;;;;32.80;27.20;;;12.80;99.90;;;;;;4997292;28;20050;-77
2022/05/15 05:39:48;;;;;;;29.40;26.60;;;12.90;99.90;;;;;;4997646;28;20053;-76
2022/05/15 05:42:14;;;;;;;30.42;26.58;;;13.10;99.90;;;;;;4997162;28;20060;-77
2022/05/15 05:44:41;;;;;;;35.75;26.38;;;13.20;99.90;;;;;;5003249;28;20112;-77
2022/05/15 05:47:08;;;;;;;27.60;25.20;;;13.30;99.90;;;;;;5009811;28;20049;-77
2022/05/15 05:49:35;;;;;;;30.17;25.00;;;13.20;99.90;;;;;;4996251;28;20046;-77
2022/05/15 05:52:02;;;;;;;28.83;25.80;;;13.20;99.90;;;;;;4982175;28;20112;-77
2022/05/15 05:54:29;;;;;;;33.70;25.35;;;13.30;99.90;;;;;;4996016;28;20046;-76
2022/05/15 05:56:58;;;;;;;28.25;25.38;;;13.40;99.90;;;;;;4994352;28;20141;-77
2022/05/15 05:59:25;;;;;;;29.55;24.55;;;13.70;99.90;;;;;;4980121;28;20053;-78
2022/05/15 06:01:52;;;;;;;27.42;24.13;;;14.00;99.90;;;;;;4979780;28;20563;-77
2022/05/15 06:07:05;;;;;;;30.08;23.38;;;14.80;99.90;;;;;;4997020;28;20077;-77
2022/05/15 06:09:31;;;;;;;25.23;22.58;;;15.00;99.90;;;;;;4997135;28;20149;-76
2022/05/15 06:11:59;;;;;;;26.65;23.80;;;15.10;99.90;;;;;;4996803;28;20069;-77
2022/05/15 06:14:26;;;;;;;29.25;24.40;;;15.10;99.90;;;;;;5000298;28;20041;-76
2022/05/15 06:16:53;;;;;;;27.13;24.35;;;15.20;99.90;;;;;;5015595;28;20045;-75
2022/05/15 06:19:19;;;;;;;26.33;23.70;;;15.00;99.90;;;;;;5018278;28;20050;-77
2022/05/15 06:21:46;;;;;;;27.80;24.75;;;15.10;99.90;;;;;;5016026;28;20041;-77
2022/05/15 06:24:13;;;;;;;33.10;26.88;;;15.30;99.90;;;;;;5006546;28;20426;-75
2022/05/15 06:26:40;;;;;;;35.22;25.67;;;15.20;99.90;;;;;;4993325;28;20054;-76
2022/05/15 06:29:07;;;;;;;29.27;26.25;;;15.30;99.90;;;;;;4997098;28;20058;-77
2022/05/15 06:31:33;;;;;;;28.88;26.02;;;15.70;99.90;;;;;;4997385;28;20057;-76
2022/05/15 06:34:00;;;;;;;29.83;26.85;;;15.60;99.90;;;;;;4995752;28;20062;-76
2022/05/15 06:36:27;;;;;;;28.77;25.90;;;15.30;99.90;;;;;;4994880;28;20425;-76
2022/05/15 06:38:54;;;;;;;28.02;25.25;;;15.60;99.90;;;;;;4997419;28;20534;-78
2022/05/15 06:41:21;;;;;;;29.35;26.65;;;16.10;99.90;;;;;;4997684;28;20065;-77
2022/05/15 06:43:47;;;;;;;29.75;26.65;;;16.40;99.90;;;;;;4995502;28;20366;-77
2022/05/15 06:46:14;;;;;;;28.30;25.70;;;16.70;99.90;;;;;;4983783;28;20422;-79
2022/05/15 06:48:41;;;;;;;30.58;26.55;;;17.00;99.90;;;;;;4996749;28;20137;-77
2022/05/15 06:51:08;;;;;;;29.65;26.75;;;17.30;99.90;;;;;;4981957;28;20061;-78
2022/05/15 06:53:35;;;;;;;29.40;26.33;;;17.40;99.90;;;;;;4974059;28;20080;-77
2022/05/15 06:58:47;;;;;;;;;;;16.20;99.90;;;;;;5003785;28;20057;-77
2022/05/15 07:01:14;;;;;;;30.73;27.40;;;16.50;99.90;;;;;;5001620;28;20409;-75
2022/05/15 07:03:41;;;;;;;28.75;25.70;;;16.50;99.90;;;;;;4982748;28;20057;-77
2022/05/15 07:06:10;;;;;;;27.27;24.73;;;16.90;99.90;;;;;;4986372;28;20054;-77
2022/05/15 07:08:37;;;;;;;27.67;25.15;;;17.00;99.90;;;;;;5003907;28;20574;-78
2022/05/15 07:11:05;;;;;;;27.92;25.15;;;17.20;99.90;;;;;;5004866;28;20050;-76
2022/05/15 07:13:32;;;;;;;28.40;25.67;;;17.60;99.90;;;;;;5000458;28;20041;-78
2022/05/15 07:16:00;;;;;;;28.08;25.48;;;17.60;99.90;;;;;;5000172;28;20053;-78
2022/05/15 07:18:27;;;;;;;28.10;25.70;;;18.10;99.90;;;;;;4984437;28;20054;-78
2022/05/15 07:20:53;;;;;;;28.83;25.98;;;18.50;99.90;;;;;;5002321;28;20049;-76
2022/05/15 07:23:21;;;;;;;29.25;26.02;;;19.00;99.90;;;;;;5001990;28;20049;-78
2022/05/15 07:25:49;;;;;;;29.85;26.85;;;18.80;99.90;;;;;;4993199;28;20046;-78
2022/05/15 07:28:16;;;;;;;28.63;25.92;;;18.70;99.90;;;;;;5003016;28;20062;-78
2022/05/15 07:30:43;;;;;;;30.02;26.40;;;18.60;99.90;;;;;;5005397;28;20112;-78
2022/05/15 07:33:10;;;;;;;28.23;25.20;;;18.70;99.90;;;;;;5005791;28;20049;-77
2022/05/15 07:35:36;;;;;;;27.67;24.77;;;18.50;99.90;;;;;;5002710;28;20054;-79
2022/05/15 07:38:03;;;;;;;27.17;24.40;;;18.90;99.90;;;;;;5003451;28;20093;-78
2022/05/15 07:40:30;;;;;;;26.92;24.55;;;18.90;99.90;;;;;;4985051;28;20100;-76
2022/05/15 07:42:57;;;;;;;29.00;24.65;;;18.70;99.90;;;;;;4999754;28;20417;-78
2022/05/15 07:45:24;;;;;;;27.95;24.85;;;18.40;99.90;;;;;;4998620;28;20069;-77
2022/05/15 07:47:51;;;;;;;28.65;24.40;;;18.90;99.90;;;;;;4994244;28;20873;-78
2022/05/15 07:50:18;;;;;;;28.88;25.85;;;18.90;99.90;;;;;;4975542;28;20105;-76
2022/05/15 07:52:47;;;;;;;28.73;25.73;;;18.80;99.90;;;;;;4979896;28;20062;-78
2022/05/15 07:55:14;;;;;;;32.17;25.83;;;19.00;99.90;;;;;;4963910;28;20046;-77
2022/05/15 07:57:41;;;;;;;28.05;25.45;;;19.20;99.90;;;;;;4985401;28;20073;-78
2022/05/15 08:00:11;;;;;;;28.63;25.65;;;18.80;99.90;;;;;;5001352;28;20125;-79
2022/05/15 08:02:38;;;;;;;27.00;24.48;;;18.90;99.90;;;;;;5000544;28;20059;-76
2022/05/15 08:08:02;;;;;;;28.88;25.95;;;18.60;99.90;;;;;;4997942;28;20057;-78
2022/05/15 08:10:35;;;;;;;28.70;25.85;;;18.20;99.90;;;;;;4999675;28;20117;-77
2022/05/15 08:13:04;;;;;;;27.35;24.77;;;18.70;99.90;;;;;;4988809;28;20701;-79
2022/05/15 08:15:31;;;;;;;28.50;25.70;;;19.20;99.90;;;;;;5011787;28;20076;-79
2022/05/15 08:23:34;;;;;;;27.67;25.00;;;19.70;99.90;;;;;;4944518;29;20603;-75
2022/05/15 08:26:01;;;;;;;29.58;26.65;;;20.10;99.90;;;;;;4944382;29;20544;-75
2022/05/15 08:28:28;;;;;;;29.42;26.23;;;20.20;99.90;;;;;;4944805;28;20534;-77
2022/05/15 08:30:55;;;;;;;29.15;26.23;;;20.10;99.90;;;;;;4943953;28;20051;-76
2022/05/15 08:33:21;;;;;;;29.40;26.80;;;20.20;99.90;;;;;;4945220;28;20051;-76
2022/05/15 08:35:48;;;;;;;29.23;26.67;;;20.60;99.90;;;;;;4945236;28;20043;-76
2022/05/15 08:38:15;;;;;;;29.48;26.95;;;20.60;99.90;;;;;;4927468;29;20063;-78
2022/05/15 08:40:50;;;;;;;30.40;27.42;;;20.20;99.90;;;;;;4927058;29;20051;-74
2022/05/15 08:43:25;;;;;;;29.73;27.08;;;20.90;99.90;;;;;;4951673;28;20043;-76
2022/05/15 08:46:02;;;;;;;32.08;28.70;;;20.70;99.90;;;;;;4943266;28;20458;-75
2022/05/15 08:48:34;;;;;;;29.13;26.48;;;21.00;99.90;;;;;;4925765;29;20051;-76
2022/05/15 08:51:02;;;;;;;29.30;26.50;;;21.20;99.90;;;;;;4943234;28;20075;-79
2022/05/15 08:53:35;;;;;;;29.70;26.98;;;20.70;99.90;;;;;;4945464;28;20059;-79
2022/05/15 08:56:07;;;;;;;31.45;28.10;;;20.70;99.90;;;;;;4935424;28;20278;-79
2022/05/15 08:58:43;;;;;;;31.88;28.55;;;20.70;99.90;;;;;;4925222;28;20078;-78
2022/05/15 09:01:27;;;;;;;29.52;26.52;;;20.00;99.90;;;;;;4947579;28;20521;-76
2022/05/15 09:03:54;;;;;;;30.13;26.90;;;20.20;99.90;;;;;;4965398;28;20050;-77
2022/05/15 09:06:52;;;;;;;28.50;25.92;;;20.50;99.90;;;;;;4932815;28;20050;-77
2022/05/15 09:09:49;;;;;;;28.15;25.60;;;20.70;99.90;;;;;;4936054;28;20094;-77
2022/05/15 09:12:17;;;;;;;29.02;26.40;;;20.60;99.90;;;;;;4947884;28;20387;-77
2022/05/15 09:15:01;;;;;;;30.85;27.83;;;21.00;99.90;;;;;;4945801;28;20501;-77
2022/05/15 09:17:45;;;;;;;29.45;27.13;;;21.30;99.90;;;;;;4924804;28;20043;-77
2022/05/15 09:20:16;;;;;;;29.10;26.40;;;20.30;99.90;;;;;;4927697;29;20066;-76
2022/05/15 09:22:50;;;;;;;28.45;25.95;;;20.00;99.90;;;;;;4926376;29;20063;-76
2022/05/15 09:25:21;;;;;;;30.77;27.85;;;19.70;99.90;;;;;;4929161;28;20114;-76
2022/05/15 09:28:10;;;;;;;30.08;26.90;;;20.00;99.90;;;;;;4985863;28;20096;-76
2022/05/15 09:30:45;;;;;;;28.75;26.25;;;20.30;99.90;;;;;;4963737;28;20050;-77
2022/05/15 09:33:32;;;;;;;28.63;25.65;;;21.20;99.90;;;;;;4951163;28;20090;-76
2022/05/15 09:36:19;;;;;;;30.13;27.23;;;20.80;99.90;;;;;;4948949;28;20051;-76
2022/05/15 09:38:48;;;;;;;30.75;28.23;;;21.10;99.90;;;;;;4948386;28;20129;-77
2022/05/15 09:44:36;;;;;;;30.25;27.83;;;21.50;99.90;;;;;;4973574;28;20046;-76
2022/05/15 09:47:03;;;;;;;32.97;30.00;;;21.60;99.90;;;;;;4963973;28;20525;-77
2022/05/15 09:49:34;;;;;;;29.70;27.13;;;21.80;99.90;;;;;;4948825;28;20075;-77
2022/05/15 09:52:10;;;;;;;29.55;26.73;;;21.60;99.90;;;;;;4965779;28;20046;-76
2022/05/15 09:54:38;;;;;;;29.45;26.88;;;20.90;99.90;;;;;;4965053;28;20047;-76
2022/05/15 09:57:16;;;;;;;29.50;26.80;;;21.20;99.90;;;;;;4950603;28;20049;-77
2022/05/15 09:59:59;;;;;;;32.55;27.05;;;21.60;99.90;;;;;;4947844;28;20058;-76
2022/05/15 10:02:43;;;;;;;30.08;27.35;;;20.40;99.90;;;;;;4966049;28;20133;-76
2022/05/15 10:05:19;;;;;;;29.80;27.20;;;20.80;99.90;;;;;;4965911;28;20182;-76
2022/05/15 10:08:08;;;;;;;31.60;27.88;;;20.80;99.90;;;;;;4965636;28;20081;-77
2022/05/15 10:10:42;;;;;;;30.90;27.83;;;20.50;99.90;;;;;;4946328;28;20368;-77
2022/05/15 10:13:30;;;;;;;31.00;28.08;;;20.50;99.90;;;;;;4954495;28;20331;-76
2022/05/15 10:16:05;;;;;;;30.17;27.67;;;20.30;99.90;;;;;;4947987;28;20038;-76
2022/05/15 10:18:56;;;;;;;31.20;28.20;;;21.00;99.90;;;;;;4949935;28;20149;-76
2022/05/15 10:21:28;;;;;;;29.63;27.17;;;21.70;99.90;;;;;;4946958;28;20070;-76
2022/05/15 10:24:05;;;;;;;32.10;29.08;;;21.30;99.90;;;;;;4961451;28;20097;-76
2022/05/15 10:26:44;;;;;;;31.38;28.88;;;21.40;99.90;;;;;;4962880;28;20127;-77
2022/05/15 10:29:16;;;;;;;31.77;28.98;;;21.70;99.90;;;;;;4965014;28;20100;-76
2022/05/15 10:31:50;;;;;;;31.67;28.95;;;21.90;99.90;;;;;;4945613;28;20054;-76
2022/05/15 10:34:23;;;;;;;30.73;27.90;;;21.10;99.90;;;;;;4963558;28;20494;-76
2022/05/15 10:37:19;;;;;;;31.42;28.52;;;20.20;99.90;;;;;;4947798;28;20496;-76
2022/05/15 10:40:05;;;;;;;;;;;20.70;99.90;;;;;;4939993;28;20082;-77
2022/05/15 10:42:48;;;;;;;31.75;29.10;;;21.60;99.90;;;;;;4962020;28;19930;-77
2022/05/15 10:45:31;;;;;;;31.50;28.77;;;21.60;99.90;;;;;;4946619;28;20061;-77
2022/05/15 10:48:22;;;;;;;31.67;28.95;;;21.20;99.90;;;;;;4964087;28;20545;-76
2022/05/15 10:50:59;;;;;;;31.25;28.75;;;21.00;99.90;;;;;;4947479;28;20050;-77
2022/05/15 10:59:36;;;;;;;33.78;31.05;;;22.30;99.90;;;;;;4965566;28;20121;-76
2022/05/15 11:02:47;;;;;;;32.92;30.27;;;22.10;99.90;;;;;;4964773;28;20105;-76
2022/05/15 11:05:37;;;;;;;33.45;30.75;;;21.70;99.90;;;;;;4964223;28;20114;-76
2022/05/15 11:08:47;;;;;;;32.15;29.58;;;20.80;99.90;;;;;;4963803;28;20054;-77
2022/05/15 11:11:16;;;;;;;34.00;30.83;;;21.30;99.90;;;;;;4966723;28;20082;-76
2022/05/15 11:14:05;;;;;;;32.20;29.55;;;21.90;99.90;;;;;;4966820;28;20390;-76
2022/05/15 11:17:11;;;;;;;32.30;29.17;;;22.00;99.90;;;;;;4957869;28;20465;-77
2022/05/15 11:19:40;;;;;;;32.63;30.20;;;21.80;99.90;;;;;;4942399;28;20051;-76
2022/05/15 11:22:40;;;;;;;33.78;31.30;;;21.90;99.90;;;;;;4942112;28;20138;-76
2022/05/15 11:25:21;;;;;;;33.42;30.58;;;21.80;99.90;;;;;;4954451;28;20141;-76
2022/05/15 11:27:55;;;;;;;32.10;29.48;;;20.80;99.90;;;;;;4961462;28;20058;-76
2022/05/15 11:30:32;;;;;;;33.15;30.60;;;21.00;99.90;;;;;;4965438;28;20137;-76
2022/05/15 11:33:23;;;;;;;33.75;30.95;;;21.00;99.90;;;;;;4961164;28;20097;-76
2022/05/15 11:36:26;;;;;;;31.45;29.23;;;21.00;99.90;;;;;;4945453;28;20062;-77
2022/05/15 11:39:26;;;;;;;31.75;29.20;;;21.20;99.90;;;;;;4931426;28;20086;-77
2022/05/15 11:42:17;;;;;;;34.40;31.88;;;21.30;99.90;;;;;;4935005;28;20347;-77
2022/05/15 11:44:47;;;;;;;34.05;30.95;;;21.20;99.90;;;;;;4941995;28;20050;-77
2022/05/15 11:47:33;;;;;;;32.00;29.80;;;21.10;99.90;;;;;;4947552;28;20129;-76
2022/05/15 11:50:05;;;;;;;31.83;29.38;;;21.50;99.90;;;;;;4962328;28;20042;-76
2022/05/15 11:53:01;;;;;;;34.15;31.42;;;22.50;99.90;;;;;;4963745;28;20055;-75
2022/05/15 11:55:49;;;;;;;33.08;30.83;;;21.50;99.90;;;;;;4964700;28;20444;-76
2022/05/15 11:58:26;;;;;;;33.30;30.70;;;21.90;99.90;;;;;;4963897;28;20105;-76
2022/05/15 12:01:12;;;;;;;32.80;29.95;;;21.60;99.90;;;;;;4948133;28;20066;-77
2022/05/15 12:03:39;;;;;;;33.38;30.73;;;22.10;99.90;;;;;;4965074;28;20473;-76
2022/05/15 12:06:05;;;;;;;33.42;30.85;;;21.90;99.80;;;;;;4948313;28;20131;-75
2022/05/15 12:08:35;;;;;;;32.47;30.23;;;21.80;99.00;;;;;;4947338;28;20633;-76
2022/05/15 12:11:34;;;;;;;32.03;29.63;;;22.10;98.50;;;;;;4965423;28;20105;-76
2022/05/15 12:14:22;;;;;;;33.05;30.52;;;22.40;97.90;;;;;;4971189;28;20050;-75
2022/05/15 12:17:24;;;;;;;34.05;31.42;;;22.70;99.10;;;;;;4964346;28;20039;-74
2022/05/15 12:20:07;;;;;;;31.77;29.63;;;22.50;99.90;;;;;;4964340;28;20456;-75
2022/05/15 12:22:42;;;;;;;31.98;29.45;;;22.40;99.90;;;;;;4963374;28;20051;-74
2022/05/15 12:25:14;;;;;;;;;;;22.50;99.80;;;;;;4962586;28;20504;-76
2022/05/15 12:28:50;;;;;;;34.90;32.42;;;22.70;99.30;;;;;;4968172;28;20435;-77
2022/05/15 12:30:43;;;;;;;34.33;31.42;;;22.80;98.60;;;;;;4984210;28;20051;-76
2022/05/15 12:33:11;;;;;;;31.58;29.38;;;22.60;99.20;;;;;;4984937;28;20132;-77
2022/05/15 12:35:41;;;;;;;35.95;32.88;;;22.40;99.90;;;;;;4982553;28;20553;-76
2022/05/15 12:38:11;;;;;;;32.97;30.80;;;22.60;98.40;;;;;;4961653;28;20074;-76
2022/05/15 12:40:43;;;;;;;33.10;30.75;;;22.20;98.20;;;;;;4965380;28;20535;-76
2022/05/15 12:43:25;;;;;;;33.88;31.17;;;22.30;99.90;;;;;;4955242;28;20061;-76
2022/05/15 12:45:53;;;;;;;33.78;31.48;;;22.10;99.90;;;;;;4969299;28;20316;-76
2022/05/15 12:48:20;;;;;;;34.45;31.50;;;22.40;99.90;;;;;;4964510;28;20046;-77
2022/05/15 12:51:03;;;;;;;33.40;30.95;;;22.60;99.90;;;;;;4963877;28;20063;-76
2022/05/15 12:53:44;;;;;;;33.50;30.73;;;22.90;99.00;;;;;;4965839;28;20050;-76
2022/05/15 12:56:24;;;;;;;33.53;30.75;;;23.10;99.90;;;;;;4943669;28;20228;-76
2022/05/15 12:58:54;;;;;;;34.22;31.73;;;23.00;99.30;;;;;;4964781;28;20059;-76
2022/05/15 13:01:25;;;;;;;33.30;31.02;;;22.60;99.90;;;;;;4964506;28;20077;-76
2022/05/15 13:03:56;;;;;;;34.55;31.40;;;22.70;99.60;;;;;;4947897;28;20062;-76
2022/05/15 13:06:32;;;;;;;35.28;32.45;;;22.90;99.90;;;;;;4947787;28;20129;-77
2022/05/15 13:09:01;;;;;;;;;;;22.90;99.90;;;;;;4965957;28;20522;-76
2022/05/15 13:11:44;;;;;;;33.72;30.83;;;23.50;98.20;;;;;;4948414;28;20033;-76
2022/05/15 13:14:20;;;;;;;37.40;34.70;;;23.50;97.10;;;;;;4974241;28;20070;-76
2022/05/15 13:16:52;;;;;;;32.60;30.33;;;23.70;98.00;;;;;;4964199;28;20053;-77
2022/05/15 13:19:33;;;;;;;34.53;31.90;;;23.90;97.10;;;;;;4949306;28;20542;-76
2022/05/15 13:22:02;;;;;;;33.47;31.15;;;23.10;97.90;;;;;;4963275;28;20045;-76
2022/05/15 13:24:30;;;;;;;34.30;31.60;;;22.70;98.90;;;;;;4962756;28;20043;-77